createdAt,value
2023-04-09T00:12:21.516Z,5.25
2023-04-09T00:22:28.489Z,5.03
2023-04-09T00:32:37.158Z,3.70
2023-04-09T00:42:46.692Z,2.53
2023-04-09T00:52:55.137Z,5.45
2023-04-09T01:03:03.415Z,4.93
2023-04-09T01:13:19.075Z,3.92
2023-04-09T01:24:06.673Z,2.95
2023-04-09T01:34:39.865Z,3.53
2023-04-09T01:44:48.754Z,3.28
2023-04-09T01:54:59.770Z,2.00
2023-04-09T02:05:19.443Z,2.03
2023-04-09T02:15:29.462Z,2.30
2023-04-09T02:25:37.230Z,5.47
2023-04-09T02:35:46.351Z,8.70
2023-04-09T02:45:53.276Z,7.32
2023-04-09T02:56:23.675Z,5.10
2023-04-09T03:06:31.417Z,6.07
2023-04-09T03:16:39.924Z,7.88
2023-04-09T03:26:46.787Z,9.25
2023-04-09T03:36:56.979Z,9.40
2023-04-09T03:47:07.739Z,11.07
2023-04-09T03:57:17.851Z,9.30
2023-04-09T04:07:28.948Z,10.10
2023-04-09T04:17:42.690Z,10.43
2023-04-09T04:28:09.730Z,10.93
2023-04-09T04:50:25.611Z,8.75
2023-04-09T05:01:33.569Z,7.78
2023-04-09T05:12:53.794Z,7.38
2023-04-09T05:35:36.622Z,5.20
2023-04-09T05:59:12.944Z,3.70
2023-04-09T06:09:30.479Z,2.40
2023-04-09T06:19:38.364Z,2.22
2023-04-09T06:29:47.093Z,2.20
2023-04-09T06:40:01.133Z,1.98
2023-04-09T06:50:11.526Z,1.58
2023-04-09T07:00:24.766Z,1.50
2023-04-09T07:10:33.262Z,1.55
2023-04-09T07:20:41.076Z,1.13
2023-04-09T07:30:49.509Z,1.20
2023-04-09T07:40:57.950Z,0.90
2023-04-09T07:51:07.120Z,1.00
2023-04-09T08:01:14.047Z,0.95
2023-04-09T08:11:26.902Z,0.90
2023-04-09T08:21:34.970Z,1.00
2023-04-09T08:31:44.827Z,0.80
2023-04-09T08:41:53.791Z,0.85
2023-04-09T08:52:03.624Z,0.70
2023-04-09T09:02:14.237Z,0.65
2023-04-09T09:12:39.137Z,0.60
2023-04-09T09:23:03.403Z,0.70
2023-04-09T09:33:18.120Z,0.60
2023-04-09T09:43:25.352Z,0.50
2023-04-09T09:53:49.106Z,0.52
2023-04-09T10:04:03.134Z,0.60
2023-04-09T10:14:13.056Z,0.40
2023-04-09T10:24:23.262Z,0.60
2023-04-09T10:34:34.273Z,0.40
2023-04-09T10:44:44.133Z,0.32
2023-04-09T10:54:54.583Z,0.40
2023-04-09T11:05:15.151Z,0.50
2023-04-09T11:15:27.533Z,0.60
2023-04-09T11:25:36.118Z,0.40
2023-04-09T11:35:47.954Z,0.30
2023-04-09T11:45:57.514Z,0.38
2023-04-09T11:56:06.302Z,0.60
2023-04-09T12:06:16.665Z,0.40
2023-04-09T12:16:28.414Z,0.60
2023-04-09T12:26:36.080Z,0.40
2023-04-09T12:36:45.430Z,0.45
2023-04-09T12:46:57.957Z,0.43
2023-04-09T12:57:10.412Z,0.40
2023-04-09T13:07:20.691Z,0.40
2023-04-09T13:17:42.661Z,0.60
2023-04-09T13:27:50.015Z,0.38
2023-04-09T13:37:58.859Z,0.40
2023-04-09T13:48:16.180Z,0.40
2023-04-09T13:58:56.532Z,0.40
2023-04-09T14:09:14.651Z,0.40
2023-04-09T14:19:27.077Z,0.40
2023-04-09T14:29:37.639Z,1.05
2023-04-09T14:39:46.546Z,3.05
2023-04-09T14:50:06.617Z,3.90
2023-04-09T15:12:51.392Z,3.10
2023-04-09T15:22:58.161Z,3.83
2023-04-09T15:33:08.367Z,6.20
2023-04-09T15:43:15.197Z,6.03
2023-04-09T15:53:27.525Z,6.68
2023-04-09T16:03:37.981Z,8.70
2023-04-09T16:13:46.469Z,7.43
2023-04-09T16:23:54.852Z,7.95
2023-04-09T16:34:04.441Z,10.80
2023-04-09T16:44:11.190Z,12.52
2023-04-09T16:54:19.621Z,16.63
2023-04-09T17:04:26.464Z,16.63
2023-04-09T17:14:35.348Z,8.40
2023-04-09T17:24:42.242Z,6.05
2023-04-09T17:34:53.220Z,11.88
2023-04-09T17:44:59.978Z,6.63
2023-04-09T17:55:19.079Z,7.63
2023-04-09T18:05:26.895Z,7.60
2023-04-09T18:15:36.684Z,6.55
2023-04-09T18:25:43.534Z,4.40
2023-04-09T18:35:52.461Z,9.20
2023-04-09T18:45:59.336Z,5.43
2023-04-09T18:56:08.184Z,9.75
2023-04-09T19:06:16.010Z,8.30
2023-04-09T19:16:24.535Z,4.68
2023-04-09T19:26:31.454Z,3.67
2023-04-09T19:36:40.423Z,5.07
2023-04-09T19:46:47.250Z,3.30
2023-04-09T19:56:55.751Z,4.18
2023-04-09T20:07:02.873Z,3.00
2023-04-09T20:17:12.436Z,2.00
2023-04-09T20:27:19.376Z,3.58
2023-04-09T20:37:28.232Z,3.20
2023-04-09T20:47:35.096Z,11.63
2023-04-09T20:57:44.798Z,12.57
2023-04-09T21:07:51.697Z,6.20
2023-04-09T21:18:00.316Z,6.95
2023-04-09T21:28:18.655Z,3.65
2023-04-09T21:38:27.298Z,4.07
2023-04-09T21:48:38.444Z,2.85
2023-04-09T21:58:48.644Z,2.60
2023-04-09T22:08:56.906Z,2.30
2023-04-09T22:19:05.891Z,1.85
2023-04-09T22:29:14.275Z,1.80
2023-04-09T22:39:23.835Z,1.80
2023-04-09T22:49:35.959Z,2.10
2023-04-09T22:59:44.358Z,2.25
2023-04-09T23:10:08.013Z,3.28
2023-04-09T23:20:18.057Z,2.50
2023-04-09T23:30:25.468Z,2.40
2023-04-09T23:40:34.386Z,1.80
2023-04-09T23:50:41.986Z,1.70
